EGPK/PIK METAR and TAF weather

Enter ICAO airport designator
Station Type Date Time Source
EGPK METAR 2020/09/28 09:50 UTC NOAA

EGPK 280950Z 16006KT 090V180 6000 -DZRA BKN019 12/11 Q1010


Station Type Date Time Source
EGPK Decoded METAR 2020/09/28 09:50 UTC NOAA

Prestwick Airport, United Kingdom (EGPK) 55-30N 004-35W 0M
Sep 28, 2020 - 05:50 AM EDT / 2020.09.28 0950 UTC
Wind: from the SSE (160 degrees) at 7 MPH (6 KT) (direction variable):0
Visibility: 3 mile(s):0
Sky conditions: mostly cloudy
Weather: light drizzle, rain
Temperature: 53 F (12 C)
Dew Point: 51 F (11 C)
Relative Humidity: 93%
Pressure (altimeter): 29.83 in. Hg (1010 hPa)
ob: EGPK 280950Z 16006KT 090V180 6000 -DZRA BKN019 12/11 Q1010
cycle: 10

Station Type Date Time Source
EGPK TAF 2020/09/28 06:16 UTC NOAA

TAF COR EGPK 280511Z 2806/2906 11005KT 9999 FEW030
TEMPO 2806/2815 6000 -RA BKN014
BECMG 2807/2810 18010KT PROB30
TEMPO 2807/2812 17015G25KT PROB30
TEMPO 2808/2815 4000 RADZ BKN009
BECMG 2812/2815 26010KT
BECMG 2821/2824 VRB03KT PROB30 2902/2906 8000

Example: see airport list